createdAt,value
2018-01-27T00:02:18.660Z,99116.23
2018-01-27T00:04:46.430Z,99118.69
2018-01-27T00:07:13.886Z,99121.15
2018-01-27T00:09:41.347Z,99119.20
2018-01-27T00:12:09.121Z,99131.56
2018-01-27T00:14:36.584Z,99127.75
2018-01-27T00:17:04.040Z,99132.03
2018-01-27T00:19:31.804Z,99139.95
2018-01-27T00:21:59.261Z,99139.08
2018-01-27T00:24:26.715Z,99136.17
2018-01-27T00:26:54.497Z,99143.46
2018-01-27T00:29:21.949Z,99151.61
2018-01-27T00:31:49.400Z,99149.37
2018-01-27T00:34:17.155Z,99146.22
2018-01-27T00:36:44.601Z,99145.55
2018-01-27T00:39:12.053Z,99154.08
2018-01-27T00:41:39.880Z,99155.55
2018-01-27T00:44:07.337Z,99158.50
2018-01-27T00:46:34.801Z,99162.84
2018-01-27T00:49:02.560Z,99171.11
2018-01-27T00:51:30.714Z,99170.14
2018-01-27T00:53:58.171Z,99174.52
2018-01-27T00:56:25.848Z,99179.59
2018-01-27T00:58:53.325Z,99181.70
2018-01-27T01:01:20.780Z,99180.94
2018-01-27T01:03:48.690Z,99175.70
2018-01-27T01:06:16.150Z,99177.79
2018-01-27T01:08:43.610Z,99174.83
2018-01-27T01:11:13.377Z,99177.97
2018-01-27T01:13:40.825Z,99180.52
2018-01-27T01:16:08.274Z,99178.41
2018-01-27T01:18:36.068Z,99185.87
2018-01-27T01:21:03.524Z,99193.55
2018-01-27T01:23:30.973Z,99198.94
2018-01-27T01:25:58.762Z,99195.13
2018-01-27T01:28:26.215Z,99195.70
2018-01-27T01:30:53.976Z,99194.81
2018-01-27T01:33:21.762Z,99199.09
2018-01-27T01:35:49.213Z,99206.94
2018-01-27T01:38:16.668Z,99211.91
2018-01-27T01:40:44.431Z,99206.67
2018-01-27T01:43:17.520Z,99209.08
2018-01-27T01:45:44.976Z,99215.78
2018-01-27T01:48:12.953Z,99218.27
2018-01-27T01:50:40.410Z,99220.98
2018-01-27T01:53:08.693Z,99217.14
2018-01-27T01:55:36.559Z,99214.82
2018-01-27T01:58:04.021Z,99223.47
2018-01-27T02:00:31.468Z,99220.42
2018-01-27T02:02:59.566Z,99228.75
2018-01-27T02:05:27.027Z,99231.39
2018-01-27T02:07:54.476Z,99233.02
2018-01-27T02:10:22.255Z,99233.56
2018-01-27T02:12:49.764Z,99230.20
2018-01-27T02:15:17.209Z,99235.82
2018-01-27T02:17:44.937Z,99234.92
2018-01-27T02:20:12.402Z,99239.67
2018-01-27T02:22:40.606Z,99242.03
2018-01-27T02:25:08.240Z,99236.05
2018-01-27T02:27:35.701Z,99246.08
2018-01-27T02:30:03.166Z,99249.53
2018-01-27T02:32:30.926Z,99252.72
2018-01-27T02:34:58.387Z,99250.95
2018-01-27T02:37:25.840Z,99255.33
2018-01-27T02:39:53.927Z,99257.69
2018-01-27T02:42:21.373Z,99265.20
2018-01-27T02:44:48.824Z,99268.98
2018-01-27T02:47:16.506Z,99266.11
2018-01-27T02:49:43.957Z,99257.05
2018-01-27T02:52:11.434Z,99259.16
2018-01-27T02:54:40.163Z,99260.95
2018-01-27T02:57:07.615Z,99266.94
2018-01-27T02:59:35.086Z,99277.30
2018-01-27T03:02:02.902Z,99277.95
2018-01-27T03:04:30.357Z,99278.34
2018-01-27T03:06:57.816Z,99278.65
2018-01-27T03:09:25.897Z,99277.09
2018-01-27T03:11:53.349Z,99279.63
2018-01-27T03:14:20.804Z,99283.78
2018-01-27T03:16:48.577Z,99294.27
2018-01-27T03:19:16.029Z,99293.40
2018-01-27T03:21:43.482Z,99297.77
2018-01-27T03:24:11.581Z,99304.80
2018-01-27T03:26:39.040Z,99299.23
2018-01-27T03:29:06.505Z,99306.14
2018-01-27T03:31:34.569Z,99314.52
2018-01-27T03:34:02.046Z,99309.88
2018-01-27T03:36:29.506Z,99307.30
2018-01-27T03:38:57.256Z,99311.23
2018-01-27T03:41:24.712Z,99314.68
2018-01-27T03:43:52.157Z,99322.24
2018-01-27T03:46:19.874Z,99315.23
2018-01-27T03:48:47.324Z,99321.49
2018-01-27T03:51:14.793Z,99316.94
2018-01-27T03:53:42.904Z,99322.17
2018-01-27T03:56:11.396Z,99332.25
2018-01-27T03:58:38.869Z,99330.13
2018-01-27T04:01:06.772Z,99332.58
2018-01-27T04:03:34.234Z,99335.10
2018-01-27T04:06:01.692Z,99342.36
2018-01-27T04:08:29.532Z,99345.25
2018-01-27T04:10:56.988Z,99346.36
2018-01-27T04:20:07.824Z,99352.50
2018-01-27T04:22:35.285Z,99358.08
2018-01-27T04:25:02.748Z,99355.06
2018-01-27T04:27:30.517Z,99357.17
2018-01-27T04:29:57.993Z,99355.48
2018-01-27T04:32:25.452Z,99366.47
2018-01-27T04:34:53.509Z,99370.99
2018-01-27T04:37:20.965Z,99365.77
2018-01-27T04:39:48.428Z,99368.34
2018-01-27T04:42:16.187Z,99368.63
2018-01-27T04:44:43.656Z,99371.17
2018-01-27T04:47:11.121Z,99376.98
2018-01-27T04:49:39.196Z,99377.95
2018-01-27T04:52:06.656Z,99381.06
2018-01-27T04:54:34.113Z,99382.45
2018-01-27T04:57:02.817Z,99387.38
2018-01-27T04:59:30.265Z,99389.66
2018-01-27T05:01:57.725Z,99391.13
2018-01-27T05:04:25.476Z,99392.83
2018-01-27T05:06:52.938Z,99396.30
2018-01-27T05:09:20.404Z,99389.47
2018-01-27T05:11:48.180Z,99397.20
2018-01-27T05:14:15.640Z,99397.47
2018-01-27T05:16:43.096Z,99396.00
2018-01-27T05:19:10.856Z,99395.76
2018-01-27T05:21:38.316Z,99399.06
2018-01-27T05:24:05.768Z,99400.45
2018-01-27T05:26:33.544Z,99404.73
2018-01-27T05:29:01.001Z,99405.43
2018-01-27T05:31:28.465Z,99410.18
2018-01-27T05:33:56.233Z,99404.78
2018-01-27T05:36:23.700Z,99405.98
2018-01-27T05:38:51.153Z,99414.63
2018-01-27T05:41:18.922Z,99419.84
2018-01-27T05:43:46.385Z,99427.63
2018-01-27T05:46:13.850Z,99434.06
2018-01-27T05:48:41.912Z,99434.50
2018-01-27T05:51:09.373Z,99439.72
2018-01-27T05:53:36.831Z,99447.49
2018-01-27T05:56:04.593Z,99446.80
2018-01-27T05:58:32.440Z,99447.96
2018-01-27T06:00:59.901Z,99444.55
2018-01-27T06:03:27.901Z,99445.20
2018-01-27T06:05:55.360Z,99446.16
2018-01-27T06:08:22.821Z,99446.16
2018-01-27T06:10:50.581Z,99444.81
2018-01-27T06:13:18.040Z,99441.36
2018-01-27T06:15:45.512Z,99451.29
2018-01-27T06:18:13.272Z,99462.36
2018-01-27T06:20:40.739Z,99456.70
2018-01-27T06:23:08.200Z,99461.28
2018-01-27T06:25:35.960Z,99474.50
2018-01-27T06:28:03.418Z,99476.22
2018-01-27T06:30:30.873Z,99482.53
2018-01-27T06:32:58.672Z,99485.25
2018-01-27T06:35:26.134Z,99488.02
2018-01-27T06:37:53.593Z,99495.32
2018-01-27T06:40:21.329Z,99495.45
2018-01-27T06:42:48.777Z,99504.52
2018-01-27T06:45:16.231Z,99510.65
2018-01-27T06:47:44.014Z,99517.17
2018-01-27T06:50:11.472Z,99514.06
2018-01-27T06:52:38.928Z,99514.45
2018-01-27T06:55:06.704Z,99516.92
2018-01-27T06:57:34.157Z,99505.38
2018-01-27T07:00:02.584Z,99511.31
2018-01-27T07:02:30.312Z,99518.31
2018-01-27T07:04:57.757Z,99527.41
2018-01-27T07:07:25.207Z,99538.30
2018-01-27T07:09:52.997Z,99543.05
2018-01-27T07:12:20.450Z,99548.31
2018-01-27T07:14:47.903Z,99555.34
2018-01-27T07:17:15.689Z,99553.61
2018-01-27T07:19:43.145Z,99552.20
2018-01-27T07:22:10.605Z,99558.91
2018-01-27T07:24:38.383Z,99574.27
2018-01-27T07:27:05.885Z,99578.07
2018-01-27T07:29:33.326Z,99575.73
2018-01-27T07:32:01.382Z,99580.23
2018-01-27T07:34:28.876Z,99585.77
2018-01-27T07:36:56.338Z,99590.23
2018-01-27T07:39:24.060Z,99589.70
2018-01-27T07:41:51.522Z,99601.25
2018-01-27T07:44:18.972Z,99601.80
2018-01-27T07:46:46.732Z,99591.59
2018-01-27T07:49:14.185Z,99597.29
2018-01-27T07:51:41.923Z,99596.73
2018-01-27T07:54:10.050Z,99604.44
2018-01-27T07:56:37.509Z,99611.92
2018-01-27T07:59:04.974Z,99618.48
2018-01-27T08:01:33.677Z,99618.55
2018-01-27T08:04:01.142Z,99624.62
2018-01-27T08:06:28.595Z,99624.46
2018-01-27T08:08:56.344Z,99623.42
2018-01-27T08:11:23.798Z,99626.02
2018-01-27T08:13:51.269Z,99637.25
2018-01-27T08:16:19.021Z,99639.95
2018-01-27T08:18:46.481Z,99636.34
2018-01-27T08:21:13.933Z,99641.63
2018-01-27T08:23:42.029Z,99639.47
2018-01-27T08:26:09.500Z,99640.25
2018-01-27T08:28:37.940Z,99640.72
2018-01-27T08:31:05.882Z,99639.19
2018-01-27T08:33:33.340Z,99647.59
2018-01-27T08:36:00.801Z,99654.12
2018-01-27T08:38:28.640Z,99652.44
2018-01-27T08:40:56.098Z,99653.17
2018-01-27T08:43:23.556Z,99652.27
2018-01-27T08:45:51.342Z,99655.27
2018-01-27T08:48:18.820Z,99667.10
2018-01-27T08:50:46.299Z,99665.02
2018-01-27T08:53:14.301Z,99665.17
2018-01-27T08:55:41.756Z,99673.24
2018-01-27T08:58:10.459Z,99679.73
2018-01-27T09:00:37.921Z,99677.44
2018-01-27T09:03:05.387Z,99681.52
2018-01-27T09:05:33.147Z,99688.04
2018-01-27T09:08:00.614Z,99690.91
2018-01-27T09:10:28.072Z,99692.02
2018-01-27T09:12:56.124Z,99690.75
2018-01-27T09:15:23.585Z,99693.59
2018-01-27T09:17:51.048Z,99697.31
2018-01-27T09:20:18.832Z,99706.78
2018-01-27T09:22:46.292Z,99716.86
2018-01-27T09:25:13.752Z,99722.44
2018-01-27T09:27:41.516Z,99715.62
2018-01-27T09:30:08.976Z,99720.90
2018-01-27T09:32:36.456Z,99721.77
2018-01-27T09:35:04.194Z,99738.22
2018-01-27T09:37:31.642Z,99729.64
2018-01-27T09:39:59.097Z,99732.89
2018-01-27T09:42:26.877Z,99735.34
2018-01-27T09:44:54.322Z,99737.13
2018-01-27T09:47:21.780Z,99742.20
2018-01-27T09:49:49.886Z,99744.92
2018-01-27T09:52:17.347Z,99745.70
2018-01-27T09:54:44.802Z,99751.37
2018-01-27T09:57:12.525Z,99760.16
2018-01-27T09:59:40.465Z,99755.44
2018-01-27T10:02:07.916Z,99761.11
2018-01-27T10:04:35.875Z,99755.69
2018-01-27T10:07:03.332Z,99768.17
2018-01-27T10:09:30.820Z,99758.27
2018-01-27T10:11:58.556Z,99755.35
2018-01-27T10:14:26.023Z,99756.27
2018-01-27T10:16:53.485Z,99756.98
2018-01-27T10:19:21.243Z,99757.52
2018-01-27T10:21:48.756Z,99758.87
2018-01-27T10:24:16.180Z,99759.78
2018-01-27T10:26:43.928Z,99758.22
2018-01-27T10:29:11.390Z,99760.50
2018-01-27T10:31:38.834Z,99758.00
2018-01-27T10:34:06.620Z,99763.25
2018-01-27T10:36:34.079Z,99759.30
2018-01-27T10:39:01.533Z,99753.81
2018-01-27T10:41:29.296Z,99752.98
2018-01-27T10:43:56.753Z,99755.94
2018-01-27T10:46:24.228Z,99756.76
2018-01-27T10:48:51.981Z,99758.77
2018-01-27T10:51:19.429Z,99757.85
2018-01-27T10:53:46.884Z,99755.98
2018-01-27T10:56:14.633Z,99760.94
2018-01-27T10:58:42.087Z,99763.37
2018-01-27T11:01:11.825Z,99755.89
2018-01-27T11:03:39.513Z,99756.75
2018-01-27T11:06:06.972Z,99760.33
2018-01-27T11:08:34.420Z,99758.72
2018-01-27T11:11:02.066Z,99763.05
2018-01-27T11:13:29.508Z,99766.63
2018-01-27T11:15:56.969Z,99769.66
2018-01-27T11:18:24.888Z,99771.76
2018-01-27T11:20:52.339Z,99766.50
2018-01-27T11:23:19.793Z,99771.45
2018-01-27T11:25:47.533Z,99763.69
2018-01-27T11:28:14.993Z,99765.58
2018-01-27T11:30:42.442Z,99768.95
2018-01-27T11:33:10.249Z,99769.27
2018-01-27T11:35:37.693Z,99770.11
2018-01-27T11:38:05.136Z,99769.94
2018-01-27T11:40:32.949Z,99766.73
2018-01-27T11:43:00.419Z,99769.89
2018-01-27T11:45:27.871Z,99771.95
2018-01-27T11:47:55.624Z,99763.65
2018-01-27T11:50:23.073Z,99757.03
2018-01-27T11:52:50.534Z,99760.91
2018-01-27T11:55:18.309Z,99759.84
2018-01-27T11:57:45.760Z,99757.16
2018-01-27T12:00:13.220Z,99754.41
2018-01-27T12:02:41.942Z,99755.01
2018-01-27T12:05:09.396Z,99759.11
2018-01-27T12:07:36.853Z,99757.28
2018-01-27T12:10:04.701Z,99751.41
2018-01-27T12:12:32.144Z,99746.82
2018-01-27T12:14:59.601Z,99749.51
2018-01-27T12:17:27.269Z,99748.77
2018-01-27T12:19:54.711Z,99740.69
2018-01-27T12:22:22.161Z,99742.20
2018-01-27T12:24:49.997Z,99736.62
2018-01-27T12:27:17.444Z,99740.08
2018-01-27T12:29:44.892Z,99743.17
2018-01-27T12:32:12.670Z,99743.80
2018-01-27T12:34:40.112Z,99745.95
2018-01-27T12:37:07.558Z,99743.53
2018-01-27T12:39:35.362Z,99742.62
2018-01-27T12:42:02.810Z,99742.68
2018-01-27T12:44:30.252Z,99737.33
2018-01-27T12:46:58.048Z,99738.14
2018-01-27T12:49:25.499Z,99732.78
2018-01-27T12:51:52.941Z,99732.13
2018-01-27T12:54:20.637Z,99738.21
2018-01-27T12:56:48.084Z,99745.45
2018-01-27T12:59:15.533Z,99748.19
2018-01-27T13:01:43.417Z,99750.95
2018-01-27T13:04:11.881Z,99752.19
2018-01-27T13:06:39.344Z,99758.32
2018-01-27T13:09:07.355Z,99750.34
2018-01-27T13:11:34.800Z,99754.51
2018-01-27T13:14:02.277Z,99762.95
2018-01-27T13:16:30.023Z,99758.21
2018-01-27T13:18:57.474Z,99764.89
2018-01-27T13:21:24.933Z,99765.42
2018-01-27T13:23:52.709Z,99764.16
2018-01-27T13:26:20.158Z,99767.27
2018-01-27T13:28:47.604Z,99773.50
2018-01-27T13:31:15.406Z,99771.62
2018-01-27T13:33:42.861Z,99775.51
2018-01-27T13:36:10.327Z,99783.42
2018-01-27T13:38:38.073Z,99785.11
2018-01-27T13:41:05.525Z,99785.23
2018-01-27T13:43:32.982Z,99782.62
2018-01-27T13:46:00.773Z,99786.78
2018-01-27T13:48:28.281Z,99786.30
2018-01-27T13:50:55.729Z,99787.67
2018-01-27T13:53:23.468Z,99799.38
2018-01-27T13:55:50.932Z,99799.09
2018-01-27T13:58:18.385Z,99791.98
2018-01-27T14:00:46.449Z,99797.73
2018-01-27T14:03:13.910Z,99805.48
2018-01-27T14:05:41.453Z,99817.28
2018-01-27T14:08:09.174Z,99822.75
2018-01-27T14:10:36.629Z,99815.83
2018-01-27T14:13:04.080Z,99822.22
2018-01-27T14:15:31.835Z,99822.23
2018-01-27T14:17:59.288Z,99814.17
2018-01-27T14:20:26.746Z,99813.30
2018-01-27T14:22:54.561Z,99809.67
2018-01-27T14:25:22.018Z,99803.55
2018-01-27T14:27:49.481Z,99812.28
2018-01-27T14:30:17.210Z,99804.34
2018-01-27T14:32:44.660Z,99805.50
2018-01-27T14:35:12.106Z,99813.05
2018-01-27T14:37:39.899Z,99810.64
2018-01-27T14:40:07.358Z,99812.54
2018-01-27T14:42:34.817Z,99820.02
2018-01-27T14:45:02.584Z,99812.84
2018-01-27T14:47:30.707Z,99816.55
2018-01-27T14:49:58.163Z,99821.41
2018-01-27T14:52:25.873Z,99833.64
2018-01-27T14:54:53.327Z,99837.10
2018-01-27T14:57:20.780Z,99827.95
2018-01-27T14:59:48.573Z,99833.16
2018-01-27T15:02:16.033Z,99832.48
2018-01-27T15:04:43.489Z,99828.87
2018-01-27T15:07:11.873Z,99831.70
2018-01-27T15:09:39.320Z,99831.95
2018-01-27T15:12:06.774Z,99834.03
2018-01-27T15:14:34.557Z,99836.28
2018-01-27T15:17:02.010Z,99834.16
2018-01-27T15:19:29.462Z,99831.22
2018-01-27T15:21:57.232Z,99841.09
2018-01-27T15:24:24.691Z,99840.19
2018-01-27T15:26:52.145Z,99856.13
2018-01-27T15:29:19.921Z,99851.19
2018-01-27T15:31:47.373Z,99851.92
2018-01-27T15:34:14.829Z,99837.67
2018-01-27T15:36:42.613Z,99840.37
2018-01-27T15:39:10.073Z,99838.59
2018-01-27T15:41:37.556Z,99844.39
2018-01-27T15:44:05.310Z,99850.23
2018-01-27T15:46:32.769Z,99863.36
2018-01-27T15:49:01.160Z,99855.95
2018-01-27T15:51:28.905Z,99855.48
2018-01-27T15:53:56.363Z,99865.09
2018-01-27T15:56:23.821Z,99866.91
2018-01-27T15:58:51.593Z,99874.58
2018-01-27T16:01:19.048Z,99887.66
2018-01-27T16:03:46.562Z,99891.09
2018-01-27T16:06:14.592Z,99885.29
2018-01-27T16:08:42.428Z,99891.12
2018-01-27T16:11:09.893Z,99890.14
2018-01-27T16:13:37.652Z,99892.51
2018-01-27T16:16:05.131Z,99896.69
2018-01-27T16:18:32.593Z,99901.41
2018-01-27T16:21:00.405Z,99902.30
2018-01-27T16:23:27.923Z,99906.72
2018-01-27T16:25:55.373Z,99905.42
2018-01-27T16:28:23.250Z,99903.61
2018-01-27T16:30:50.700Z,99910.11
2018-01-27T16:33:18.152Z,99918.30
2018-01-27T16:35:45.957Z,99921.72
2018-01-27T16:38:13.409Z,99923.45
2018-01-27T16:40:40.864Z,99930.47
2018-01-27T16:43:08.963Z,99937.44
2018-01-27T16:45:36.425Z,99936.02
2018-01-27T16:48:03.876Z,99936.89
2018-01-27T16:50:31.625Z,99943.70
2018-01-27T16:52:59.077Z,99950.28
2018-01-27T16:55:26.528Z,99959.34
2018-01-27T16:57:54.289Z,99969.17
2018-01-27T17:00:21.752Z,99974.44
2018-01-27T17:02:49.200Z,99977.11
2018-01-27T17:05:17.025Z,99975.74
2018-01-27T17:07:44.493Z,99966.22
2018-01-27T17:10:12.321Z,99966.42
2018-01-27T17:12:40.356Z,99976.47
2018-01-27T17:15:07.804Z,99978.13
2018-01-27T17:17:35.281Z,99981.12
2018-01-27T17:20:03.015Z,99992.86
2018-01-27T17:22:30.465Z,99987.97
2018-01-27T17:24:57.929Z,99994.50
2018-01-27T17:27:25.699Z,99987.50
2018-01-27T17:29:53.150Z,99985.16
2018-01-27T17:32:20.611Z,99991.05
2018-01-27T17:34:48.372Z,99987.54
2018-01-27T17:37:15.834Z,99988.98
2018-01-27T17:39:43.287Z,99984.77
2018-01-27T17:42:11.064Z,99990.29
2018-01-27T17:44:38.526Z,99988.30
2018-01-27T17:47:05.986Z,99986.79
2018-01-27T17:49:33.760Z,99990.97
2018-01-27T17:52:01.218Z,99988.13
2018-01-27T17:54:28.667Z,99984.86
2018-01-27T17:56:56.522Z,99993.06
2018-01-27T17:59:23.998Z,100005.42
2018-01-27T18:01:51.461Z,100006.21
2018-01-27T18:04:19.128Z,100000.46
2018-01-27T18:06:46.621Z,100005.81
2018-01-27T18:09:14.102Z,100003.03
2018-01-27T18:11:42.776Z,100005.27
2018-01-27T18:14:10.232Z,100004.19
2018-01-27T18:16:37.710Z,100004.98
2018-01-27T18:19:05.662Z,100004.95
2018-01-27T18:21:33.110Z,100004.58
2018-01-27T18:24:00.569Z,100010.61
2018-01-27T18:26:28.309Z,100009.42
2018-01-27T18:28:55.789Z,100011.08
2018-01-27T18:31:23.252Z,100020.65
2018-01-27T18:33:51.135Z,100019.38
2018-01-27T18:36:18.569Z,100029.34
2018-01-27T18:38:46.027Z,100030.68
2018-01-27T18:41:13.929Z,100034.95
2018-01-27T18:43:41.395Z,100040.84
2018-01-27T18:46:08.851Z,100048.77
2018-01-27T18:48:36.710Z,100048.07
2018-01-27T18:51:04.181Z,100053.64
2018-01-27T18:53:31.643Z,100049.20
2018-01-27T18:55:59.457Z,100038.02
2018-01-27T18:58:26.910Z,100034.58
2018-01-27T19:00:54.404Z,100039.44
2018-01-27T19:03:22.453Z,100044.98
2018-01-27T19:05:49.914Z,100045.44
2018-01-27T19:08:17.377Z,100044.91
2018-01-27T19:10:45.145Z,100048.11
2018-01-27T19:13:12.980Z,100044.14
2018-01-27T19:15:40.432Z,100050.57
2018-01-27T19:18:08.128Z,100049.34
2018-01-27T19:20:35.580Z,100041.11
2018-01-27T19:23:03.029Z,100045.81
2018-01-27T19:25:30.837Z,100043.30
2018-01-27T19:27:58.301Z,100042.88
2018-01-27T19:30:25.759Z,100042.66
2018-01-27T19:32:53.504Z,100041.67
2018-01-27T19:35:20.966Z,100046.38
2018-01-27T19:37:48.417Z,100049.90
2018-01-27T19:40:16.815Z,100054.54
2018-01-27T19:42:44.276Z,100064.13
2018-01-27T19:45:11.753Z,100066.66
2018-01-27T19:47:39.496Z,100064.09
2018-01-27T19:50:06.963Z,100056.83
2018-01-27T19:52:35.308Z,100060.01
2018-01-27T19:55:03.158Z,100056.08
2018-01-27T19:57:30.624Z,100057.17
2018-01-27T19:59:58.085Z,100064.41
2018-01-27T20:02:26.101Z,100067.09
2018-01-27T20:04:53.609Z,100075.02
2018-01-27T20:07:21.069Z,100067.16
2018-01-27T20:09:48.807Z,100074.55
2018-01-27T20:12:16.261Z,100074.89
2018-01-27T20:14:44.401Z,100072.02
2018-01-27T20:17:12.114Z,100074.06
2018-01-27T20:19:39.572Z,100071.49
2018-01-27T20:22:07.027Z,100072.39
2018-01-27T20:24:34.780Z,100066.76
2018-01-27T20:27:02.261Z,100072.91
2018-01-27T20:29:29.720Z,100075.82
2018-01-27T20:31:57.469Z,100076.97
2018-01-27T20:34:24.922Z,100075.42
2018-01-27T20:36:52.381Z,100072.73
2018-01-27T20:39:20.180Z,100078.45
2018-01-27T20:41:47.637Z,100080.98
2018-01-27T20:44:15.096Z,100077.43
2018-01-27T20:46:43.147Z,100078.83
2018-01-27T20:49:10.608Z,100079.62
2018-01-27T20:51:38.117Z,100073.59
2018-01-27T20:54:05.880Z,100078.30
2018-01-27T20:56:33.346Z,100082.23
2018-01-27T20:59:00.804Z,100070.13
2018-01-27T21:01:28.529Z,100078.30
2018-01-27T21:03:56.010Z,100075.66
2018-01-27T21:06:23.472Z,100066.30
2018-01-27T21:08:51.196Z,100063.23
2018-01-27T21:11:18.674Z,100062.27
2018-01-27T21:13:46.157Z,100058.34
2018-01-27T21:16:15.488Z,100063.16
2018-01-27T21:18:42.933Z,100054.97
2018-01-27T21:21:10.385Z,100052.37
2018-01-27T21:23:38.114Z,100058.03
2018-01-27T21:26:05.575Z,100050.11
2018-01-27T21:28:33.032Z,100049.41
2018-01-27T21:31:00.797Z,100047.67
2018-01-27T21:33:28.249Z,100049.74
2018-01-27T21:35:55.709Z,100054.07
2018-01-27T21:38:23.496Z,100053.70
2018-01-27T21:40:50.951Z,100063.66
2018-01-27T21:43:18.412Z,100071.00
2018-01-27T21:45:46.128Z,100082.29
2018-01-27T21:48:13.585Z,100084.45
2018-01-27T21:50:41.700Z,100080.52
2018-01-27T21:53:09.480Z,100067.56
2018-01-27T21:55:37.259Z,100074.03
2018-01-27T21:58:04.712Z,100074.52
2018-01-27T22:00:32.722Z,100066.78
2018-01-27T22:03:00.188Z,100074.15
2018-01-27T22:05:27.654Z,100069.91
2018-01-27T22:07:55.776Z,100077.00
2018-01-27T22:10:23.238Z,100075.05
2018-01-27T22:12:50.716Z,100078.13
2018-01-27T22:15:18.433Z,100071.23
2018-01-27T22:17:46.337Z,100071.64
2018-01-27T22:20:13.802Z,100074.18
2018-01-27T22:22:42.685Z,100071.20
2018-01-27T22:25:10.148Z,100065.17
2018-01-27T22:27:37.601Z,100068.73
2018-01-27T22:30:05.324Z,100069.50
2018-01-27T22:32:32.780Z,100060.91
2018-01-27T22:35:00.245Z,100059.20
2018-01-27T22:37:28.062Z,100061.71
2018-01-27T22:39:55.521Z,100063.09
2018-01-27T22:42:22.985Z,100053.97
2018-01-27T22:44:50.749Z,100049.70
2018-01-27T22:47:18.208Z,100052.39
2018-01-27T22:49:45.679Z,100054.98
2018-01-27T22:52:13.425Z,100057.95
2018-01-27T22:54:41.902Z,100062.20
2018-01-27T22:57:09.356Z,100060.13
2018-01-27T22:59:37.344Z,100067.48
2018-01-27T23:02:04.808Z,100061.50
2018-01-27T23:04:32.268Z,100063.59
2018-01-27T23:07:00.049Z,100061.09
2018-01-27T23:09:27.508Z,100061.85
2018-01-27T23:11:54.972Z,100060.15
2018-01-27T23:14:22.718Z,100057.20
2018-01-27T23:16:50.181Z,100065.38
2018-01-27T23:19:17.915Z,100062.75
2018-01-27T23:21:45.714Z,100065.26
2018-01-27T23:24:13.180Z,100061.94
2018-01-27T23:26:40.688Z,100052.27
2018-01-27T23:29:08.712Z,100046.67
2018-01-27T23:31:36.168Z,100035.91
2018-01-27T23:34:03.625Z,100026.39
2018-01-27T23:36:31.396Z,100015.11
2018-01-27T23:38:58.857Z,100013.84
2018-01-27T23:41:26.319Z,100012.10
2018-01-27T23:43:54.085Z,100006.87
2018-01-27T23:46:21.552Z,100012.94
2018-01-27T23:48:49.008Z,100025.06
2018-01-27T23:51:16.935Z,100028.55
2018-01-27T23:53:44.394Z,100031.09
2018-01-27T23:56:11.856Z,100033.23
2018-01-27T23:58:39.776Z,100042.28
